createdAt,value
2017-08-25T00:01:00.858Z,17.6
2017-08-25T00:02:02.351Z,17.4
2017-08-25T00:03:03.753Z,17.5
2017-08-25T00:04:05.222Z,17.4
2017-08-25T00:05:06.625Z,17.5
2017-08-25T00:06:08.033Z,17.5
2017-08-25T00:07:09.542Z,17.4
2017-08-25T00:08:10.941Z,17.5
2017-08-25T00:09:12.341Z,17.4
2017-08-25T00:10:13.763Z,17.4
2017-08-25T00:11:15.167Z,17.4
2017-08-25T00:12:16.594Z,17.4
2017-08-25T00:13:18.079Z,17.4
2017-08-25T00:14:19.477Z,17.3
2017-08-25T00:15:20.875Z,17.3
2017-08-25T00:16:22.300Z,17.3
2017-08-25T00:17:23.700Z,17.3
2017-08-25T00:18:25.181Z,17.2
2017-08-25T00:19:26.579Z,17.2
2017-08-25T00:20:28.062Z,17.3
2017-08-25T00:21:29.458Z,17.2
2017-08-25T00:22:30.945Z,17.3
2017-08-25T00:23:32.342Z,17.3
2017-08-25T00:24:33.822Z,17.2
2017-08-25T00:25:35.222Z,17.3
2017-08-25T00:26:36.620Z,17.1
2017-08-25T00:27:38.040Z,17.2
2017-08-25T00:28:39.438Z,17.2
2017-08-25T00:29:40.835Z,17.2
2017-08-25T00:30:42.260Z,17.2
2017-08-25T00:31:43.664Z,17.2
2017-08-25T00:32:45.058Z,17.2
2017-08-25T00:33:46.479Z,17.2
2017-08-25T00:34:47.899Z,17.1
2017-08-25T00:35:49.296Z,17.1
2017-08-25T00:36:50.800Z,17.2
2017-08-25T00:37:52.198Z,17.1
2017-08-25T00:38:53.680Z,17.1
2017-08-25T00:39:55.080Z,17.1
2017-08-25T00:40:56.560Z,17.1
2017-08-25T00:41:57.959Z,17.0
2017-08-25T00:42:59.441Z,17.1
2017-08-25T00:44:00.838Z,17.0
2017-08-25T00:45:02.322Z,17.1
2017-08-25T00:46:03.721Z,17.0
2017-08-25T00:47:05.126Z,17.0
2017-08-25T00:48:06.542Z,17.1
2017-08-25T00:49:07.940Z,17.1
2017-08-25T00:50:09.339Z,17.1
2017-08-25T00:51:10.762Z,17.1
2017-08-25T00:52:12.162Z,17.1
2017-08-25T00:53:13.644Z,17.0
2017-08-25T00:54:15.043Z,17.1
2017-08-25T00:55:16.519Z,17.1
2017-08-25T00:56:17.922Z,17.0
2017-08-25T00:57:19.316Z,17.0
2017-08-25T00:58:20.739Z,17.0
2017-08-25T00:59:22.138Z,17.1
2017-08-25T01:00:23.531Z,17.1
2017-08-25T01:01:24.959Z,17.0
2017-08-25T01:02:26.358Z,17.0
2017-08-25T01:03:27.838Z,17.0
2017-08-25T01:04:29.238Z,17.0
2017-08-25T01:05:30.719Z,17.0
2017-08-25T01:06:32.120Z,17.0
2017-08-25T01:07:33.597Z,17.0
2017-08-25T01:08:35.001Z,17.0
2017-08-25T01:09:36.481Z,17.0
2017-08-25T01:10:37.893Z,17.0
2017-08-25T01:11:39.365Z,17.0
2017-08-25T01:12:40.763Z,17.0
2017-08-25T01:13:42.242Z,17.0
2017-08-25T01:14:43.639Z,17.0
2017-08-25T01:15:45.039Z,16.9
2017-08-25T01:16:46.460Z,17.0
2017-08-25T01:17:47.858Z,17.0
2017-08-25T01:18:49.252Z,17.0
2017-08-25T01:19:50.679Z,16.9
2017-08-25T01:20:52.077Z,17.0
2017-08-25T01:21:53.484Z,17.0
2017-08-25T01:22:54.898Z,17.0
2017-08-25T01:23:56.312Z,16.9
2017-08-25T01:24:57.712Z,17.0
2017-08-25T01:25:59.217Z,16.9
2017-08-25T01:27:00.616Z,16.9
2017-08-25T01:28:02.016Z,16.9
2017-08-25T01:29:03.437Z,16.8
2017-08-25T01:30:04.843Z,16.9
2017-08-25T01:31:06.264Z,16.8
2017-08-25T01:32:07.758Z,16.7
2017-08-25T01:33:09.155Z,16.7
2017-08-25T01:34:10.558Z,16.7
2017-08-25T01:35:11.977Z,16.8
2017-08-25T01:36:13.375Z,16.7
2017-08-25T01:37:14.776Z,16.7
2017-08-25T01:38:16.196Z,16.7
2017-08-25T01:39:17.603Z,16.7
2017-08-25T01:40:18.987Z,16.7
2017-08-25T01:41:20.419Z,16.7
2017-08-25T01:42:21.842Z,16.6
2017-08-25T01:43:23.295Z,16.6
2017-08-25T01:44:24.717Z,16.6
2017-08-25T01:45:26.177Z,16.6
2017-08-25T01:46:27.574Z,16.6
2017-08-25T01:47:28.970Z,16.6
2017-08-25T01:48:30.394Z,16.6
2017-08-25T01:49:31.792Z,16.5
2017-08-25T01:50:33.191Z,16.5
2017-08-25T01:51:34.715Z,16.5
2017-08-25T01:52:36.117Z,16.5
2017-08-25T01:53:37.598Z,16.5
2017-08-25T01:54:38.992Z,16.5
2017-08-25T01:55:40.476Z,16.5
2017-08-25T01:56:41.892Z,16.5
2017-08-25T01:57:43.407Z,16.4
2017-08-25T01:58:44.808Z,16.4
2017-08-25T01:59:46.240Z,16.4
2017-08-25T02:00:47.638Z,16.4
2017-08-25T02:01:49.044Z,16.4
2017-08-25T02:02:50.437Z,16.3
2017-08-25T02:03:51.896Z,16.4
2017-08-25T02:04:53.311Z,16.4
2017-08-25T02:05:54.778Z,16.4
2017-08-25T02:06:56.178Z,16.3
2017-08-25T02:07:57.573Z,16.3
2017-08-25T02:08:58.997Z,16.3
2017-08-25T02:10:00.394Z,16.4
2017-08-25T02:11:01.792Z,16.3
2017-08-25T02:12:03.215Z,16.3
2017-08-25T02:13:04.643Z,16.4
2017-08-25T02:14:05.995Z,16.3
2017-08-25T02:15:07.428Z,16.4
2017-08-25T02:16:08.828Z,16.4
2017-08-25T02:17:10.243Z,16.3
2017-08-25T02:18:11.753Z,16.3
2017-08-25T02:19:13.152Z,16.3
2017-08-25T02:20:14.559Z,16.3
2017-08-25T02:21:15.952Z,16.4
2017-08-25T02:22:17.414Z,16.4
2017-08-25T02:23:18.809Z,16.4
2017-08-25T02:24:20.293Z,16.3
2017-08-25T02:25:21.699Z,16.4
2017-08-25T02:26:23.173Z,16.4
2017-08-25T02:27:24.574Z,16.3
2017-08-25T02:28:25.971Z,16.3
2017-08-25T02:29:27.794Z,16.3
2017-08-25T02:30:29.192Z,16.3
2017-08-25T02:31:30.589Z,16.4
2017-08-25T02:32:32.022Z,16.3
2017-08-25T02:33:33.417Z,16.3
2017-08-25T02:34:34.820Z,16.4
2017-08-25T02:35:36.241Z,16.3
2017-08-25T02:36:37.636Z,16.3
2017-08-25T02:37:39.033Z,16.3
2017-08-25T02:38:40.459Z,16.3
2017-08-25T02:39:41.855Z,16.3
2017-08-25T02:40:43.254Z,16.4
2017-08-25T02:41:44.677Z,16.4
2017-08-25T02:42:46.078Z,16.3
2017-08-25T02:43:47.556Z,16.3
2017-08-25T02:44:48.956Z,16.4
2017-08-25T02:45:50.437Z,16.4
2017-08-25T02:46:51.835Z,16.3
2017-08-25T02:47:53.322Z,16.2
2017-08-25T02:48:54.726Z,16.3
2017-08-25T02:49:56.198Z,16.4
2017-08-25T02:50:57.597Z,16.3
2017-08-25T02:51:59.082Z,16.3
2017-08-25T02:53:00.480Z,16.2
2017-08-25T02:54:01.879Z,16.3
2017-08-25T02:55:03.298Z,16.2
2017-08-25T02:56:04.725Z,16.2
2017-08-25T02:57:06.118Z,16.3
2017-08-25T02:58:07.619Z,16.2
2017-08-25T02:59:09.017Z,16.2
2017-08-25T03:00:10.415Z,16.2
2017-08-25T03:01:11.837Z,16.3
2017-08-25T03:02:13.638Z,16.2
2017-08-25T03:03:15.034Z,16.2
2017-08-25T03:04:16.466Z,16.2
2017-08-25T03:05:18.403Z,16.1
2017-08-25T03:06:19.797Z,16.0
2017-08-25T03:07:21.402Z,16.3
2017-08-25T03:08:22.799Z,16.1
2017-08-25T03:09:24.195Z,16.2
2017-08-25T03:10:25.723Z,16.1
2017-08-25T03:11:27.123Z,16.2
2017-08-25T03:12:28.511Z,16.2
2017-08-25T03:13:29.941Z,16.1
2017-08-25T03:14:31.339Z,16.1
2017-08-25T03:15:32.942Z,16.1
2017-08-25T03:16:34.357Z,16.1
2017-08-25T03:17:35.757Z,16.1
2017-08-25T03:18:37.348Z,16.0
2017-08-25T03:19:38.744Z,16.1
2017-08-25T03:20:40.142Z,16.1
2017-08-25T03:21:41.670Z,16.0
2017-08-25T03:22:43.067Z,16.0
2017-08-25T03:23:44.466Z,16.0
2017-08-25T03:24:45.990Z,16.0
2017-08-25T03:25:47.388Z,15.9
2017-08-25T03:26:48.788Z,16.0
2017-08-25T03:27:50.312Z,15.9
2017-08-25T03:28:51.708Z,15.9
2017-08-25T03:29:53.105Z,15.9
2017-08-25T03:30:54.636Z,15.9
2017-08-25T03:31:56.032Z,15.9
2017-08-25T03:32:57.442Z,15.8
2017-08-25T03:33:59.011Z,15.8
2017-08-25T03:35:00.409Z,15.8
2017-08-25T03:36:02.039Z,15.8
2017-08-25T03:37:03.443Z,15.8
2017-08-25T03:38:05.136Z,15.8
2017-08-25T03:39:06.525Z,15.8
2017-08-25T03:40:08.210Z,15.8
2017-08-25T03:41:09.605Z,15.7
2017-08-25T03:42:11.300Z,15.7
2017-08-25T03:43:12.704Z,15.7
2017-08-25T03:44:14.177Z,15.7
2017-08-25T03:45:15.574Z,15.6
2017-08-25T03:46:17.262Z,15.6
2017-08-25T03:47:18.658Z,15.6
2017-08-25T03:48:20.058Z,15.6
2017-08-25T03:49:21.601Z,15.6
2017-08-25T03:50:22.977Z,15.6
2017-08-25T03:51:24.378Z,15.6
2017-08-25T03:52:25.914Z,15.5
2017-08-25T03:53:27.312Z,15.6
2017-08-25T03:54:28.887Z,15.5
2017-08-25T03:55:30.283Z,15.4
2017-08-25T03:56:31.878Z,15.4
2017-08-25T03:57:33.267Z,15.4
2017-08-25T03:58:34.955Z,15.5
2017-08-25T03:59:36.353Z,15.5
2017-08-25T04:00:38.039Z,15.4
2017-08-25T04:01:39.439Z,15.5
2017-08-25T04:02:41.128Z,15.5
2017-08-25T04:03:42.522Z,15.5
2017-08-25T04:04:44.221Z,15.4
2017-08-25T04:05:45.619Z,15.4
2017-08-25T04:06:47.309Z,15.4
2017-08-25T04:07:48.697Z,15.4
2017-08-25T04:08:50.108Z,15.4
2017-08-25T04:09:51.668Z,15.5
2017-08-25T04:10:53.063Z,15.4
2017-08-25T04:11:54.461Z,15.4
2017-08-25T04:12:56.161Z,15.4
2017-08-25T04:13:57.548Z,15.4
2017-08-25T04:14:58.945Z,15.3
2017-08-25T04:16:00.368Z,15.4
2017-08-25T04:17:01.775Z,15.4
2017-08-25T04:18:03.174Z,15.4
2017-08-25T04:19:04.718Z,15.3
2017-08-25T04:20:06.116Z,15.3
2017-08-25T04:21:07.518Z,15.3
2017-08-25T04:22:09.012Z,15.3
2017-08-25T04:23:10.413Z,15.3
2017-08-25T04:24:11.815Z,15.2
2017-08-25T04:25:13.336Z,15.3
2017-08-25T04:26:14.733Z,15.3
2017-08-25T04:27:16.216Z,15.3
2017-08-25T04:28:17.616Z,15.3
2017-08-25T04:29:19.133Z,15.3
2017-08-25T04:30:20.576Z,15.3
2017-08-25T04:31:23.004Z,15.3
2017-08-25T04:32:24.403Z,15.3
2017-08-25T04:33:25.803Z,15.3
2017-08-25T04:34:27.328Z,15.2
2017-08-25T04:35:28.728Z,15.3
2017-08-25T04:36:30.127Z,15.3
2017-08-25T04:37:31.650Z,15.3
2017-08-25T04:38:33.050Z,15.2
2017-08-25T04:39:34.448Z,15.3
2017-08-25T04:40:35.967Z,15.2
2017-08-25T04:41:37.370Z,15.2
2017-08-25T04:42:38.765Z,15.3
2017-08-25T04:43:40.289Z,15.2
2017-08-25T04:44:41.691Z,15.3
2017-08-25T04:45:43.171Z,15.2
2017-08-25T04:46:44.569Z,15.2
2017-08-25T04:47:46.063Z,15.2
2017-08-25T04:48:47.463Z,15.3
2017-08-25T04:49:48.934Z,15.2
2017-08-25T04:50:50.337Z,15.3
2017-08-25T04:51:51.813Z,15.3
2017-08-25T04:52:53.214Z,15.3
2017-08-25T04:53:54.693Z,15.2
2017-08-25T04:54:56.093Z,15.3
2017-08-25T04:55:57.576Z,15.2
2017-08-25T04:56:58.979Z,15.3
2017-08-25T04:58:00.461Z,15.3
2017-08-25T04:59:01.866Z,15.3
2017-08-25T05:00:03.337Z,15.3
2017-08-25T05:01:04.742Z,15.3
2017-08-25T05:02:06.219Z,15.4
2017-08-25T05:03:07.626Z,15.4
2017-08-25T05:04:09.022Z,15.4
2017-08-25T05:05:10.555Z,15.4
2017-08-25T05:06:11.960Z,15.4
2017-08-25T05:07:13.394Z,15.4
2017-08-25T05:08:14.863Z,15.4
2017-08-25T05:09:16.265Z,15.4
2017-08-25T05:10:17.665Z,15.3
2017-08-25T05:11:19.183Z,15.4
2017-08-25T05:12:20.616Z,15.5
2017-08-25T05:13:22.025Z,15.4
2017-08-25T05:14:23.518Z,15.5
2017-08-25T05:15:24.920Z,15.5
2017-08-25T05:16:26.344Z,15.4
2017-08-25T05:17:27.828Z,15.4
2017-08-25T05:18:29.229Z,15.5
2017-08-25T05:19:30.634Z,15.4
2017-08-25T05:20:32.146Z,15.6
2017-08-25T05:21:33.554Z,15.5
2017-08-25T05:22:34.952Z,15.5
2017-08-25T05:23:36.320Z,15.6
2017-08-25T05:24:37.720Z,15.6
2017-08-25T05:25:39.128Z,15.6
2017-08-25T05:26:40.589Z,15.6
2017-08-25T05:27:41.988Z,15.6
2017-08-25T05:28:43.389Z,15.6
2017-08-25T05:29:44.908Z,15.7
2017-08-25T05:30:46.309Z,15.6
2017-08-25T05:31:47.799Z,15.7
2017-08-25T05:32:49.195Z,15.7
2017-08-25T05:33:50.672Z,15.8
2017-08-25T05:34:52.075Z,15.8
2017-08-25T05:35:53.554Z,15.7
2017-08-25T05:36:54.955Z,15.8
2017-08-25T05:37:56.439Z,15.9
2017-08-25T05:38:57.842Z,15.8
2017-08-25T05:39:59.246Z,15.9
2017-08-25T05:41:00.757Z,15.9
2017-08-25T05:42:02.157Z,15.9
2017-08-25T05:43:03.556Z,15.9
2017-08-25T05:44:05.103Z,15.9
2017-08-25T05:45:06.507Z,16.0
2017-08-25T05:46:07.926Z,16.0
2017-08-25T05:47:09.478Z,16.0
2017-08-25T05:48:10.883Z,16.1
2017-08-25T05:49:12.304Z,16.0
2017-08-25T05:50:13.795Z,16.1
2017-08-25T05:51:15.198Z,16.1
2017-08-25T05:52:16.885Z,16.1
2017-08-25T05:53:18.289Z,16.1
2017-08-25T05:54:19.966Z,16.1
2017-08-25T05:55:21.370Z,16.1
2017-08-25T05:56:23.054Z,16.1
2017-08-25T05:57:24.460Z,16.2
2017-08-25T05:58:26.141Z,16.1
2017-08-25T05:59:27.540Z,16.1
2017-08-25T06:00:29.231Z,16.2
2017-08-25T06:01:30.636Z,16.2
2017-08-25T06:02:32.310Z,16.2
2017-08-25T06:03:33.722Z,16.2
2017-08-25T06:04:35.123Z,16.2
2017-08-25T06:05:36.636Z,16.3
2017-08-25T06:06:38.038Z,16.3
2017-08-25T06:07:39.442Z,16.3
2017-08-25T06:08:40.961Z,16.2
2017-08-25T06:09:42.365Z,16.3
2017-08-25T06:10:43.772Z,16.3
2017-08-25T06:11:45.294Z,16.3
2017-08-25T06:12:46.687Z,16.3
2017-08-25T06:13:48.086Z,16.4
2017-08-25T06:14:49.594Z,16.4
2017-08-25T06:15:50.997Z,16.5
2017-08-25T06:16:52.693Z,16.5
2017-08-25T06:17:54.101Z,16.5
2017-08-25T06:18:55.694Z,16.6
2017-08-25T06:19:57.100Z,16.6
2017-08-25T06:20:58.502Z,16.6
2017-08-25T06:22:00.087Z,16.6
2017-08-25T06:23:01.530Z,16.7
2017-08-25T06:24:02.918Z,16.7
2017-08-25T06:25:04.408Z,16.8
2017-08-25T06:26:05.808Z,16.7
2017-08-25T06:27:07.509Z,16.8
2017-08-25T06:28:08.914Z,16.8
2017-08-25T06:29:10.581Z,16.8
2017-08-25T06:30:11.979Z,16.8
2017-08-25T06:31:13.380Z,16.9
2017-08-25T06:32:14.898Z,16.9
2017-08-25T06:33:16.300Z,16.9
2017-08-25T06:34:17.703Z,16.9
2017-08-25T06:35:19.118Z,17.0
2017-08-25T06:36:20.524Z,17.0
2017-08-25T06:37:21.999Z,17.0
2017-08-25T06:38:23.403Z,17.0
2017-08-25T06:39:24.883Z,17.0
2017-08-25T06:40:26.301Z,17.1
2017-08-25T06:41:27.696Z,17.1
2017-08-25T06:42:29.203Z,17.1
2017-08-25T06:43:30.607Z,17.2
2017-08-25T06:44:32.022Z,17.2
2017-08-25T06:45:33.532Z,17.3
2017-08-25T06:46:34.934Z,17.3
2017-08-25T06:47:36.406Z,17.4
2017-08-25T06:48:37.812Z,17.3
2017-08-25T06:49:39.282Z,17.4
2017-08-25T06:50:40.691Z,17.4
2017-08-25T06:51:42.166Z,17.5
2017-08-25T06:52:43.572Z,17.5
2017-08-25T06:53:45.045Z,17.6
2017-08-25T06:54:46.452Z,17.5
2017-08-25T06:55:47.924Z,17.7
2017-08-25T06:56:49.330Z,17.7
2017-08-25T06:57:50.806Z,17.7
2017-08-25T06:58:52.212Z,17.7
2017-08-25T06:59:53.701Z,17.7
2017-08-25T07:00:55.132Z,17.7
2017-08-25T07:01:56.569Z,17.7
2017-08-25T07:02:57.979Z,17.8
2017-08-25T07:03:59.448Z,17.8
2017-08-25T07:05:00.855Z,17.9
2017-08-25T07:06:02.334Z,17.9
2017-08-25T07:07:03.739Z,18.0
2017-08-25T07:08:05.594Z,17.8
2017-08-25T07:09:07.001Z,17.9
2017-08-25T07:10:08.501Z,18.0
2017-08-25T07:11:09.910Z,18.0
2017-08-25T07:12:11.382Z,18.1
2017-08-25T07:13:12.787Z,18.1
2017-08-25T07:14:14.264Z,18.2
2017-08-25T07:15:15.673Z,18.2
2017-08-25T07:16:17.548Z,18.3
2017-08-25T07:17:18.952Z,18.3
2017-08-25T07:18:20.455Z,18.5
2017-08-25T07:19:21.916Z,18.5
2017-08-25T07:20:23.341Z,18.5
2017-08-25T07:21:24.754Z,18.6
2017-08-25T07:22:26.157Z,18.7
2017-08-25T07:23:27.559Z,18.7
2017-08-25T07:24:29.076Z,18.9
2017-08-25T07:25:30.479Z,18.9
2017-08-25T07:26:31.884Z,18.8
2017-08-25T07:27:33.396Z,18.9
2017-08-25T07:28:34.800Z,18.9
2017-08-25T07:29:36.279Z,18.9
2017-08-25T07:30:37.697Z,19.1
2017-08-25T07:31:39.157Z,19.1
2017-08-25T07:32:40.569Z,19.3
2017-08-25T07:33:42.038Z,19.3
2017-08-25T07:34:43.444Z,19.3
2017-08-25T07:35:44.939Z,19.5
2017-08-25T07:36:46.341Z,19.5
2017-08-25T07:37:47.744Z,19.6
2017-08-25T07:38:49.245Z,19.5
2017-08-25T07:39:50.648Z,19.5
2017-08-25T07:40:52.062Z,19.4
2017-08-25T07:41:53.559Z,19.5
2017-08-25T07:42:54.964Z,19.4
2017-08-25T07:43:56.368Z,19.4
2017-08-25T07:44:57.774Z,19.4
2017-08-25T07:45:59.177Z,19.5
2017-08-25T07:47:00.660Z,19.5
2017-08-25T07:48:02.071Z,19.6
2017-08-25T07:49:04.560Z,19.7
2017-08-25T07:50:05.975Z,19.8
2017-08-25T07:51:07.444Z,19.8
2017-08-25T07:52:08.853Z,19.8
2017-08-25T07:53:10.326Z,19.9
2017-08-25T07:54:11.730Z,20.0
2017-08-25T07:55:13.207Z,20.0
2017-08-25T07:56:14.610Z,20.1
2017-08-25T07:57:16.090Z,20.1
2017-08-25T07:58:17.496Z,20.1
2017-08-25T07:59:18.968Z,20.2
2017-08-25T08:00:20.375Z,20.3
2017-08-25T08:01:21.849Z,20.5
2017-08-25T08:02:23.258Z,20.5
2017-08-25T08:03:24.728Z,20.4
2017-08-25T08:04:26.133Z,20.6
2017-08-25T08:05:27.621Z,20.5
2017-08-25T08:06:29.015Z,20.7
2017-08-25T08:07:30.417Z,20.8
2017-08-25T08:08:31.930Z,20.9
2017-08-25T08:09:33.336Z,21.0
2017-08-25T08:10:34.741Z,21.1
2017-08-25T08:11:36.253Z,21.2
2017-08-25T08:12:37.659Z,21.1
2017-08-25T08:13:39.063Z,21.3
2017-08-25T08:14:40.573Z,21.3
2017-08-25T08:15:41.987Z,21.3
2017-08-25T08:16:43.389Z,21.2
2017-08-25T08:17:44.894Z,21.3
2017-08-25T08:18:46.298Z,21.3
2017-08-25T08:19:47.775Z,21.4
2017-08-25T08:20:49.181Z,21.3
2017-08-25T08:21:50.589Z,21.4
2017-08-25T08:22:52.096Z,21.4
2017-08-25T08:23:53.508Z,21.7
2017-08-25T08:24:54.903Z,21.7
2017-08-25T08:25:56.435Z,21.9
2017-08-25T08:26:57.843Z,21.9
2017-08-25T08:27:59.301Z,22.1
2017-08-25T08:29:00.708Z,22.1
2017-08-25T08:30:02.177Z,22.3
2017-08-25T08:31:03.588Z,22.3
2017-08-25T08:32:05.012Z,22.4
2017-08-25T08:33:06.499Z,22.2
2017-08-25T08:34:07.909Z,22.3
2017-08-25T08:35:09.321Z,22.1
2017-08-25T08:36:10.819Z,22.0
2017-08-25T08:37:12.229Z,22.0
2017-08-25T08:38:13.635Z,22.0
2017-08-25T08:39:15.141Z,22.0
2017-08-25T08:40:16.542Z,21.9
2017-08-25T08:41:17.966Z,22.0
2017-08-25T08:42:19.462Z,22.2
2017-08-25T08:43:20.865Z,22.3
2017-08-25T08:44:22.273Z,22.4
2017-08-25T08:45:23.786Z,22.4
2017-08-25T08:46:25.195Z,22.4
2017-08-25T08:47:26.616Z,22.5
2017-08-25T08:48:28.104Z,22.5
2017-08-25T08:49:29.507Z,22.7
2017-08-25T08:50:30.984Z,22.7
2017-08-25T08:51:32.401Z,22.8
2017-08-25T08:52:33.864Z,22.8
2017-08-25T08:53:35.276Z,23.0
2017-08-25T08:54:37.130Z,23.0
2017-08-25T08:55:38.536Z,23.2
2017-08-25T08:56:40.036Z,23.3
2017-08-25T08:57:41.441Z,23.4
2017-08-25T08:58:42.847Z,23.5
2017-08-25T08:59:44.433Z,23.5
2017-08-25T09:00:45.838Z,23.4
2017-08-25T09:01:47.246Z,23.5
2017-08-25T09:02:48.681Z,23.5
2017-08-25T09:03:50.086Z,23.5
2017-08-25T09:04:51.494Z,23.5
2017-08-25T09:05:52.998Z,23.5
2017-08-25T09:06:54.402Z,23.6
2017-08-25T09:07:55.809Z,23.7
2017-08-25T09:08:57.321Z,23.6
2017-08-25T09:09:58.720Z,23.6
2017-08-25T09:11:00.199Z,23.6
2017-08-25T09:12:01.608Z,23.6
2017-08-25T09:13:03.015Z,23.7
2017-08-25T09:14:04.524Z,23.8
2017-08-25T09:15:05.930Z,23.9
2017-08-25T09:16:07.341Z,23.8
2017-08-25T09:17:08.842Z,24.0
2017-08-25T09:18:10.245Z,24.0
2017-08-25T09:19:11.652Z,24.1
2017-08-25T09:20:13.163Z,24.3
2017-08-25T09:21:14.568Z,24.3
2017-08-25T09:22:15.980Z,24.3
2017-08-25T09:23:17.500Z,24.4
2017-08-25T09:24:18.949Z,24.4
2017-08-25T09:25:20.366Z,24.5
2017-08-25T09:26:21.770Z,24.6
2017-08-25T09:27:23.180Z,24.5
2017-08-25T09:28:24.687Z,24.5
2017-08-25T09:29:26.138Z,24.6
2017-08-25T09:30:27.559Z,24.7
2017-08-25T09:31:29.008Z,24.7
2017-08-25T09:32:30.617Z,24.7
2017-08-25T09:33:32.029Z,24.8
2017-08-25T09:34:33.533Z,24.8
2017-08-25T09:35:34.953Z,24.8
2017-08-25T09:36:36.417Z,24.9
2017-08-25T09:37:37.820Z,24.9
2017-08-25T09:38:39.315Z,25.0
2017-08-25T09:39:40.720Z,24.9
2017-08-25T09:40:42.199Z,25.0
2017-08-25T09:41:43.582Z,25.0
2017-08-25T09:42:44.994Z,25.1
2017-08-25T09:43:46.501Z,25.2
2017-08-25T09:44:47.907Z,25.2
2017-08-25T09:45:49.317Z,25.3
2017-08-25T09:46:50.819Z,25.3
2017-08-25T09:47:52.243Z,25.5
2017-08-25T09:48:53.652Z,25.5
2017-08-25T09:49:55.138Z,25.5
2017-08-25T09:50:56.547Z,25.6
2017-08-25T09:51:57.957Z,25.6
2017-08-25T09:52:59.502Z,25.8
2017-08-25T09:54:00.910Z,25.8
2017-08-25T09:55:02.343Z,25.8
2017-08-25T09:56:03.752Z,25.8
2017-08-25T09:57:05.220Z,25.9
2017-08-25T09:58:06.636Z,25.9
2017-08-25T09:59:08.045Z,25.8
2017-08-25T10:00:09.542Z,25.8
2017-08-25T10:01:10.952Z,25.8
2017-08-25T10:02:12.361Z,25.8
2017-08-25T10:03:13.863Z,25.8
2017-08-25T10:04:15.273Z,25.8
2017-08-25T10:05:16.747Z,25.9
2017-08-25T10:06:18.159Z,25.9
2017-08-25T10:07:19.671Z,26.0
2017-08-25T10:08:21.084Z,26.0
2017-08-25T10:09:22.609Z,26.1
2017-08-25T10:10:24.020Z,26.1
2017-08-25T10:11:25.492Z,26.2
2017-08-25T10:12:26.933Z,26.3
2017-08-25T10:13:28.388Z,26.4
2017-08-25T10:14:29.784Z,26.4
2017-08-25T10:15:31.253Z,26.6
2017-08-25T10:16:32.665Z,26.6
2017-08-25T10:17:34.133Z,26.6
2017-08-25T10:18:35.545Z,26.5
2017-08-25T10:19:37.013Z,26.6
2017-08-25T10:20:38.430Z,26.7
2017-08-25T10:21:39.935Z,26.8
2017-08-25T10:22:41.344Z,26.9
2017-08-25T10:23:42.755Z,27.1
2017-08-25T10:24:44.212Z,27.1
2017-08-25T10:25:45.627Z,27.2
2017-08-25T10:26:47.038Z,27.4
2017-08-25T10:27:48.457Z,27.5
2017-08-25T10:28:49.873Z,27.7
2017-08-25T10:29:51.288Z,27.7
2017-08-25T10:30:52.753Z,27.9
2017-08-25T10:31:54.168Z,28.1
2017-08-25T10:32:55.581Z,28.1
2017-08-25T10:33:57.076Z,28.1
2017-08-25T10:34:58.483Z,28.1
2017-08-25T10:35:59.953Z,28.1
2017-08-25T10:37:01.367Z,28.1
2017-08-25T10:38:02.833Z,28.1
2017-08-25T10:39:04.245Z,28.2
2017-08-25T10:40:05.718Z,28.2
2017-08-25T10:41:07.137Z,28.3
2017-08-25T10:42:08.595Z,28.3
2017-08-25T10:43:10.009Z,28.4
2017-08-25T10:44:11.488Z,28.5
2017-08-25T10:45:12.889Z,28.6
2017-08-25T10:46:14.359Z,28.7
2017-08-25T10:47:15.772Z,28.8
2017-08-25T10:48:17.183Z,29.0
2017-08-25T10:49:19.756Z,29.2
2017-08-25T10:50:21.170Z,29.4
2017-08-25T10:51:22.597Z,29.6
2017-08-25T10:52:24.228Z,29.9
2017-08-25T10:53:25.641Z,29.8
2017-08-25T10:54:27.057Z,29.9
2017-08-25T10:55:28.549Z,30.1
2017-08-25T10:56:29.961Z,30.2
2017-08-25T10:57:31.376Z,30.5
2017-08-25T10:58:32.871Z,30.7
2017-08-25T10:59:34.285Z,31.1
2017-08-25T11:00:35.750Z,31.2
2017-08-25T11:01:37.174Z,31.4
2017-08-25T11:02:38.632Z,31.4
2017-08-25T11:03:40.048Z,31.6
2017-08-25T11:04:41.465Z,31.7
2017-08-25T11:05:42.962Z,31.9
2017-08-25T11:06:44.377Z,32.0
2017-08-25T11:07:45.793Z,32.1
2017-08-25T11:08:47.659Z,32.2
2017-08-25T11:09:49.072Z,32.3
2017-08-25T11:10:50.486Z,32.3
2017-08-25T11:11:52.005Z,32.6
2017-08-25T11:12:53.420Z,32.8
2017-08-25T11:13:54.831Z,32.9
2017-08-25T11:14:56.328Z,33.1
2017-08-25T11:15:57.745Z,33.4
2017-08-25T11:16:59.162Z,33.5
2017-08-25T11:18:00.648Z,33.4
2017-08-25T11:19:02.063Z,33.5
2017-08-25T11:20:03.475Z,33.6
2017-08-25T11:21:04.969Z,33.3
2017-08-25T11:22:06.385Z,33.3
2017-08-25T11:23:07.845Z,33.4
2017-08-25T11:24:09.265Z,33.5
2017-08-25T11:25:10.678Z,33.4
2017-08-25T11:26:12.171Z,33.3
2017-08-25T11:27:13.580Z,33.3
2017-08-25T11:28:15.000Z,33.3
2017-08-25T11:29:16.553Z,33.3
2017-08-25T11:30:17.966Z,33.2
2017-08-25T11:31:19.379Z,33.2
2017-08-25T11:32:21.017Z,33.1
2017-08-25T11:33:22.435Z,33.1
2017-08-25T11:34:23.843Z,33.0
2017-08-25T11:35:25.335Z,33.0
2017-08-25T11:36:26.749Z,33.0
2017-08-25T11:37:28.320Z,32.6
2017-08-25T11:38:29.800Z,32.3
2017-08-25T11:39:31.263Z,32.0
2017-08-25T11:40:32.852Z,31.9
2017-08-25T11:41:34.273Z,31.9
2017-08-25T11:42:35.703Z,31.9
2017-08-25T11:43:37.166Z,31.9
2017-08-25T11:44:38.579Z,31.9
2017-08-25T11:45:40.049Z,32.1
2017-08-25T11:46:41.462Z,32.0
2017-08-25T11:47:43.401Z,32.1
2017-08-25T11:48:44.816Z,32.1
2017-08-25T11:49:46.229Z,32.3
2017-08-25T11:50:47.868Z,32.2
2017-08-25T11:51:49.289Z,32.2
2017-08-25T11:52:50.711Z,31.8
2017-08-25T11:53:52.388Z,31.7
2017-08-25T11:54:53.799Z,31.6
2017-08-25T11:55:55.473Z,31.5
2017-08-25T11:56:56.888Z,31.5
2017-08-25T11:57:58.559Z,31.5
2017-08-25T11:58:59.972Z,31.4
2017-08-25T12:00:01.645Z,31.5
2017-08-25T12:01:03.058Z,31.7
2017-08-25T12:02:04.480Z,31.9
2017-08-25T12:03:06.176Z,32.0
2017-08-25T12:04:07.584Z,32.1
2017-08-25T12:05:09.256Z,31.8
2017-08-25T12:06:10.665Z,31.8
2017-08-25T12:07:12.340Z,31.6
2017-08-25T12:08:13.752Z,31.4
2017-08-25T12:09:15.426Z,31.2
2017-08-25T12:10:16.837Z,31.2
2017-08-25T12:11:18.261Z,31.1
2017-08-25T12:12:19.956Z,31.0
2017-08-25T12:13:21.369Z,31.0
2017-08-25T12:14:22.784Z,30.8
2017-08-25T12:15:24.477Z,30.9
2017-08-25T12:16:25.893Z,31.0
2017-08-25T12:17:27.565Z,31.2
2017-08-25T12:18:28.975Z,31.4
2017-08-25T12:19:30.398Z,31.5
2017-08-25T12:20:32.156Z,31.6
2017-08-25T12:21:33.569Z,31.6
2017-08-25T12:22:34.999Z,31.6
2017-08-25T12:23:36.621Z,31.6
2017-08-25T12:24:38.034Z,31.5
2017-08-25T12:25:39.445Z,31.4
2017-08-25T12:26:41.161Z,31.2
2017-08-25T12:27:42.572Z,31.2
2017-08-25T12:28:43.983Z,31.2
2017-08-25T12:29:45.472Z,31.1
2017-08-25T12:30:46.912Z,31.1
2017-08-25T12:31:48.348Z,31.1
2017-08-25T12:32:49.759Z,31.2
2017-08-25T12:33:51.225Z,31.3
2017-08-25T12:34:52.636Z,31.2
2017-08-25T12:35:54.106Z,31.1
2017-08-25T12:36:55.517Z,31.0
2017-08-25T12:37:56.987Z,31.2
2017-08-25T12:38:58.399Z,31.2
2017-08-25T12:39:59.809Z,31.5
2017-08-25T12:41:01.309Z,31.5
2017-08-25T12:42:03.100Z,31.7
2017-08-25T12:43:04.528Z,32.0
2017-08-25T12:44:06.045Z,31.9
2017-08-25T12:45:07.472Z,31.9
2017-08-25T12:46:08.869Z,31.9
2017-08-25T12:47:10.412Z,32.1
2017-08-25T12:48:11.774Z,32.0
2017-08-25T12:49:13.186Z,32.1
2017-08-25T12:50:14.692Z,32.2
2017-08-25T12:51:16.102Z,32.2
2017-08-25T12:52:17.514Z,31.9
2017-08-25T12:53:18.999Z,31.4
2017-08-25T12:54:20.407Z,30.8
2017-08-25T12:55:21.818Z,30.5
2017-08-25T12:56:23.321Z,30.3
2017-08-25T12:57:24.736Z,30.1
2017-08-25T12:58:26.147Z,30.1
2017-08-25T12:59:27.640Z,30.0
2017-08-25T13:00:29.051Z,30.0
2017-08-25T13:01:30.457Z,30.0
2017-08-25T13:02:31.964Z,30.0
2017-08-25T13:03:33.373Z,30.0
2017-08-25T13:04:34.777Z,29.8
2017-08-25T13:05:37.204Z,29.8
2017-08-25T13:06:38.612Z,29.3
2017-08-25T13:07:40.085Z,29.2
2017-08-25T13:08:41.493Z,29.3
2017-08-25T13:09:42.965Z,29.2
2017-08-25T13:10:44.375Z,29.1
2017-08-25T13:11:45.796Z,29.0
2017-08-25T13:12:47.311Z,28.8
2017-08-25T13:13:48.787Z,28.9
2017-08-25T13:14:50.192Z,29.1
2017-08-25T13:15:51.713Z,29.3
2017-08-25T13:16:53.118Z,29.4
2017-08-25T13:17:54.523Z,29.5
2017-08-25T13:18:56.034Z,29.4
2017-08-25T13:19:57.439Z,29.2
2017-08-25T13:20:59.231Z,29.3
2017-08-25T13:22:00.663Z,29.2
2017-08-25T13:23:02.068Z,29.1
2017-08-25T13:24:03.542Z,28.8
2017-08-25T13:25:04.948Z,28.6
2017-08-25T13:26:06.355Z,28.5
2017-08-25T13:27:07.771Z,28.3
2017-08-25T13:28:09.198Z,28.2
2017-08-25T13:29:10.604Z,28.1
2017-08-25T13:30:12.084Z,27.9
2017-08-25T13:31:13.491Z,27.8
2017-08-25T13:32:14.897Z,27.7
2017-08-25T13:33:16.406Z,27.7
2017-08-25T13:34:17.814Z,27.5
2017-08-25T13:35:19.232Z,27.5
2017-08-25T13:36:20.718Z,27.5
2017-08-25T13:37:22.147Z,27.4
2017-08-25T13:38:23.539Z,27.3